Time;durP1;ratioP1;P1;durP2;ratioP2;P2;SDS_P1;SDS_P2;PMS_P1;PMS_P2;Temp;Humidity;BMP_temperature;BMP_pressure;BME280_temperature;BME280_humidity;BME280_pressure;Samples;Min_cycle;Max_cycle;Signal;HPM_P1;HPM_P2
2023/07/02 00:02:01;;;;;;;;;;;;;;;;;;5076284;28;20047;-80
2023/07/02 00:04:27;;;;;;;13.48;6.53;;;;;;;;;;5091700;28;19920;-80
2023/07/02 00:06:53;;;;;;;;;;;;;;;;;;5075875;28;20050;-81
2023/07/02 00:09:19;;;;;;;11.82;5.88;;;;;;;;;;5091970;28;20027;-80
2023/07/02 00:11:46;;;;;;;11.18;6.07;;;;;;;;;;5092952;28;20098;-79
2023/07/02 00:14:13;;;;;;;10.80;6.05;;;;;;;;;;5075242;28;20396;-81
2023/07/02 00:16:40;;;;;;;15.35;6.13;;;;;;;;;;5066040;28;20052;-80
2023/07/02 00:19:06;;;;;;;10.85;5.88;;;;;;;;;;5071468;28;20072;-80
2023/07/02 00:21:33;;;;;;;;;;;;;;;;;;5051072;28;20048;-80
2023/07/02 00:23:59;;;;;;;11.00;5.13;;;;;;;;;;5052333;28;20036;-80
2023/07/02 00:26:26;;;;;;;13.60;5.82;;;;;;;;;;5068889;28;20075;-79
2023/07/02 00:28:53;;;;;;;13.68;6.57;;;;;;;;;;5035942;28;20048;-80
2023/07/02 00:31:19;;;;;;;10.52;5.45;;;;;;;;;;5072102;28;20067;-80
2023/07/02 00:33:45;;;;;;;10.05;5.80;;;;;;;;;;5049829;28;20045;-79
2023/07/02 00:36:14;;;;;;;15.65;6.22;;;;;;;;;;5072246;28;20047;-79
2023/07/02 00:38:42;;;;;;;13.35;6.05;;;;;;;;;;5071852;28;20055;-80
2023/07/02 00:41:08;;;;;;;14.60;5.53;;;;;;;;;;5067546;28;20049;-80
2023/07/02 00:43:34;;;;;;;10.80;6.30;;;;;;;;;;5068306;28;20053;-79
2023/07/02 00:46:00;;;;;;;;;;;;;;;;;;5052983;28;20048;-80
2023/07/02 00:48:26;;;;;;;10.13;5.68;;;;;;;;;;5054095;28;19924;-80
2023/07/02 00:50:53;;;;;;;10.77;5.75;;;;;;;;;;5072422;28;20066;-80
2023/07/02 00:53:19;;;;;;;13.32;6.03;;;;;;;;;;5070275;28;20564;-80
2023/07/02 00:55:45;;;;;;;;;;;;;;;;;;5072873;28;20048;-80
2023/07/02 00:58:11;;;;;;;11.15;5.50;;;;;;;;;;5055253;28;20415;-80
2023/07/02 01:00:36;;;;;;;;;;;;;;;;;;5054726;28;20048;-79
2023/07/02 01:03:03;;;;;;;13.43;6.28;;;;;;;;;;5053913;28;19970;-80
2023/07/02 01:05:35;;;;;;;;;;;;;;;;;;5053812;28;20117;-79
2023/07/02 01:08:07;;;;;;;14.73;5.95;;;;;;;;;;5051587;28;19920;-79
2023/07/02 01:10:35;;;;;;;11.73;6.22;;;;;;;;;;5070971;28;20048;-79
2023/07/02 01:13:11;;;;;;;11.57;5.55;;;;;;;;;;5071283;28;20092;-79
2023/07/02 01:15:38;;;;;;;13.13;6.13;;;;;;;;;;5070778;28;20048;-79
2023/07/02 01:18:05;;;;;;;12.60;5.85;;;;;;;;;;5053940;28;20052;-79
2023/07/02 01:20:31;;;;;;;11.55;6.10;;;;;;;;;;5071258;28;20044;-79
2023/07/02 01:23:02;;;;;;;11.45;6.25;;;;;;;;;;5052752;28;20123;-79
2023/07/02 01:25:28;;;;;;;15.35;6.30;;;;;;;;;;5054728;28;20044;-79
2023/07/02 01:27:55;;;;;;;11.68;5.93;;;;;;;;;;5051205;28;20053;-79
2023/07/02 01:30:21;;;;;;;13.27;5.97;;;;;;;;;;5057782;28;20053;-79
2023/07/02 01:32:47;;;;;;;12.45;6.00;;;;;;;;;;5034574;28;20064;-79
2023/07/02 01:35:13;;;;;;;10.38;6.00;;;;;;;;;;5069783;28;20106;-79
2023/07/02 01:37:39;;;;;;;12.57;5.88;;;;;;;;;;5053235;28;20052;-79
2023/07/02 01:40:09;;;;;;;;;;;;;;;;;;5034184;28;20077;-79
2023/07/02 01:42:35;;;;;;;13.18;5.65;;;;;;;;;;5065700;28;19925;-78
2023/07/02 01:45:01;;;;;;;16.15;6.10;;;;;;;;;;5070922;28;20044;-79
2023/07/02 01:47:27;;;;;;;11.18;5.30;;;;;;;;;;5068575;28;20389;-78
2023/07/02 01:49:53;;;;;;;;;;;;;;;;;;5047706;28;20037;-79
2023/07/02 01:52:19;;;;;;;12.35;5.47;;;;;;;;;;5062357;28;19931;-78
2023/07/02 01:54:45;;;;;;;;;;;;;;;;;;5070026;28;20619;-79
2023/07/02 01:57:11;;;;;;;15.93;5.50;;;;;;;;;;5070623;28;19999;-79
2023/07/02 01:59:37;;;;;;;17.27;6.32;;;;;;;;;;5069594;28;20477;-79
2023/07/02 02:02:03;;;;;;;;;;;;;;;;;;5054376;28;20040;-79
2023/07/02 02:04:29;;;;;;;13.52;5.70;;;;;;;;;;5050977;28;20376;-79
2023/07/02 02:06:55;;;;;;;;;;;;;;;;;;5055893;28;20044;-79
2023/07/02 02:09:21;;;;;;;20.95;6.45;;;;;;;;;;5054139;28;19954;-78
2023/07/02 02:11:52;;;;;;;20.08;5.80;;;;;;;;;;5068561;28;20498;-79
2023/07/02 02:14:18;;;;;;;15.77;6.43;;;;;;;;;;5067578;28;20060;-79
2023/07/02 02:16:47;;;;;;;16.85;6.05;;;;;;;;;;5065129;28;20794;-79
2023/07/02 02:19:14;;;;;;;17.75;5.60;;;;;;;;;;5072319;28;20550;-79
2023/07/02 02:21:41;;;;;;;19.02;6.68;;;;;;;;;;5089924;28;20152;-79
2023/07/02 02:24:07;;;;;;;20.33;7.00;;;;;;;;;;5089947;28;20082;-79
2023/07/02 02:26:33;;;;;;;17.50;6.15;;;;;;;;;;5090015;28;20048;-79
2023/07/02 02:28:59;;;;;;;23.92;6.75;;;;;;;;;;5090200;28;20048;-78
2023/07/02 02:31:25;;;;;;;17.30;6.50;;;;;;;;;;5086753;28;20058;-78
2023/07/02 02:33:51;;;;;;;17.70;6.35;;;;;;;;;;5065523;28;20091;-79
2023/07/02 02:36:17;;;;;;;;;;;;;;;;;;5070568;28;20048;-79
2023/07/02 02:38:43;;;;;;;18.15;6.78;;;;;;;;;;5049237;28;19924;-79
2023/07/02 02:41:10;;;;;;;18.60;6.93;;;;;;;;;;5033770;28;20139;-78
2023/07/02 02:43:36;;;;;;;24.40;6.85;;;;;;;;;;5049477;28;20037;-79
2023/07/02 02:46:02;;;;;;;;;;;;;;;;;;5050693;28;20094;-79
2023/07/02 02:48:28;;;;;;;22.60;6.78;;;;;;;;;;5048506;28;19924;-78
2023/07/02 02:50:54;;;;;;;24.67;7.63;;;;;;;;;;5033745;28;20049;-79
2023/07/02 02:53:20;;;;;;;;;;;;;;;;;;5033263;28;20048;-79
2023/07/02 02:55:46;;;;;;;17.38;6.55;;;;;;;;;;5053179;28;20468;-79
2023/07/02 02:58:12;;;;;;;;;;;;;;;;;;5036241;28;20052;-79
2023/07/02 03:00:42;;;;;;;23.30;7.82;;;;;;;;;;5049599;28;19924;-78
2023/07/02 03:03:08;;;;;;;22.35;7.15;;;;;;;;;;5048999;28;20102;-79
2023/07/02 03:05:34;;;;;;;19.95;7.13;;;;;;;;;;5049285;28;20053;-79
2023/07/02 03:08:00;;;;;;;25.17;7.05;;;;;;;;;;5069637;28;20041;-79
2023/07/02 03:10:28;;;;;;;24.08;6.75;;;;;;;;;;5052768;28;20160;-79
2023/07/02 03:12:54;;;;;;;21.13;6.50;;;;;;;;;;5052583;28;20061;-79
2023/07/02 03:15:20;;;;;;;18.65;6.90;;;;;;;;;;5067881;28;20392;-79
2023/07/02 03:17:46;;;;;;;27.38;7.38;;;;;;;;;;5068541;28;20386;-79
2023/07/02 03:20:12;;;;;;;20.50;7.03;;;;;;;;;;5069837;28;20371;-79
2023/07/02 03:22:38;;;;;;;;;;;;;;;;;;5065345;28;20058;-78
2023/07/02 03:25:04;;;;;;;23.50;6.68;;;;;;;;;;5069149;28;20367;-77
2023/07/02 03:27:30;;;;;;;;;;;;;;;;;;5053204;28;20059;-78
2023/07/02 03:29:56;;;;;;;28.90;7.53;;;;;;;;;;5069601;28;19920;-78
2023/07/02 03:32:22;;;;;;;;;;;;;;;;;;5041012;28;20044;-79
2023/07/02 03:34:48;;;;;;;27.63;7.75;;;;;;;;;;5072372;28;19974;-78
2023/07/02 03:37:14;;;;;;;28.95;8.07;;;;;;;;;;5057186;28;20052;-79
2023/07/02 03:39:40;;;;;;;;;;;;;;;;;;5053810;28;20473;-78
2023/07/02 03:42:06;;;;;;;24.25;7.50;;;;;;;;;;5053353;28;19947;-79
2023/07/02 03:44:32;;;;;;;;;;;;;;;;;;5053309;28;20486;-77
2023/07/02 03:46:58;;;;;;;21.70;7.15;;;;;;;;;;5053514;28;19974;-78
2023/07/02 03:49:24;;;;;;;24.63;6.97;;;;;;;;;;5052487;28;20045;-78
2023/07/02 03:51:50;;;;;;;;;;;;;;;;;;5036776;28;20049;-78
2023/07/02 03:54:17;;;;;;;29.77;8.05;;;;;;;;;;5036140;28;19921;-78
2023/07/02 03:56:43;;;;;;;26.00;7.38;;;;;;;;;;5047540;28;20049;-78
2023/07/02 03:59:09;;;;;;;;;;;;;;;;;;5053397;28;20555;-78
2023/07/02 04:01:35;;;;;;;27.27;7.18;;;;;;;;;;5052726;28;20023;-77
2023/07/02 04:04:01;;;;;;;24.48;7.60;;;;;;;;;;5045601;28;20047;-78
2023/07/02 04:06:28;;;;;;;20.67;7.40;;;;;;;;;;5072999;28;20157;-78
2023/07/02 04:08:54;;;;;;;;;;;;;;;;;;5053421;28;20268;-78
2023/07/02 04:11:20;;;;;;;25.20;7.70;;;;;;;;;;5052953;28;20411;-78
2023/07/02 04:13:46;;;;;;;;;;;;;;;;;;5052724;28;20183;-78
2023/07/02 04:16:12;;;;;;;22.55;7.05;;;;;;;;;;5056729;28;20023;-78
2023/07/02 04:18:38;;;;;;;;;;;;;;;;;;5051562;28;20044;-78
2023/07/02 04:21:04;;;;;;;26.85;8.23;;;;;;;;;;5052853;28;19931;-78
2023/07/02 04:23:30;;;;;;;29.85;8.07;;;;;;;;;;5038855;28;20499;-79
2023/07/02 04:25:56;;;;;;;;;;;;;;;;;;5056163;28;20048;-78
2023/07/02 04:28:22;;;;;;;25.55;7.43;;;;;;;;;;5053633;28;19931;-78
2023/07/02 04:30:50;;;;;;;31.55;8.68;;;;;;;;;;5068937;28;20051;-78
2023/07/02 04:33:17;;;;;;;26.80;7.85;;;;;;;;;;5070650;28;20470;-78
2023/07/02 04:35:43;;;;;;;27.23;7.82;;;;;;;;;;5055483;28;20401;-78
2023/07/02 04:38:09;;;;;;;27.23;7.63;;;;;;;;;;5049773;28;20156;-78
2023/07/02 04:40:35;;;;;;;26.48;7.88;;;;;;;;;;5052379;28;20079;-78
2023/07/02 04:43:03;;;;;;;28.20;8.20;;;;;;;;;;5067508;28;20052;-78
2023/07/02 04:45:31;;;;;;;25.45;7.50;;;;;;;;;;5069173;28;20052;-78
2023/07/02 04:48:00;;;;;;;24.40;7.30;;;;;;;;;;5050990;28;20049;-78
2023/07/02 04:50:26;;;;;;;28.83;9.05;;;;;;;;;;5068049;28;20045;-78
2023/07/02 04:52:52;;;;;;;26.60;8.30;;;;;;;;;;5068439;28;20056;-78
2023/07/02 04:55:18;;;;;;;;;;;;;;;;;;5072159;28;20052;-78
2023/07/02 04:57:44;;;;;;;25.85;7.82;;;;;;;;;;5071494;28;19920;-78
2023/07/02 05:00:10;;;;;;;;;;;;;;;;;;5072357;28;20047;-78
2023/07/02 05:02:37;;;;;;;23.23;7.43;;;;;;;;;;5051218;28;20027;-78
2023/07/02 05:05:02;;;;;;;;;;;;;;;;;;5051929;28;20045;-78
2023/07/02 05:07:29;;;;;;;23.13;7.00;;;;;;;;;;5064871;28;20422;-78
2023/07/02 05:09:55;;;;;;;27.40;7.78;;;;;;;;;;5064146;28;20060;-78
2023/07/02 05:12:20;;;;;;;;;;;;;;;;;;5071487;28;20057;-78
2023/07/02 05:14:47;;;;;;;21.90;7.85;;;;;;;;;;5054474;28;19920;-78
2023/07/02 05:17:16;;;;;;;25.88;7.85;;;;;;;;;;5036843;28;20077;-77
2023/07/02 05:19:42;;;;;;;28.27;7.53;;;;;;;;;;5050392;28;20139;-77
2023/07/02 05:22:09;;;;;;;26.10;7.50;;;;;;;;;;5051614;28;20392;-78
2023/07/02 05:24:35;;;;;;;22.88;7.28;;;;;;;;;;5050894;28;20410;-78
2023/07/02 05:27:01;;;;;;;;;;;;;;;;;;5034991;28;20749;-78
2023/07/02 05:29:27;;;;;;;25.92;8.05;;;;;;;;;;5051299;28;20007;-78
2023/07/02 05:31:53;;;;;;;26.17;7.70;;;;;;;;;;5052831;28;20041;-78
2023/07/02 05:34:19;;;;;;;;;;;;;;;;;;5059220;28;20163;-78
2023/07/02 05:36:45;;;;;;;20.73;7.32;;;;;;;;;;5049491;28;20022;-78
2023/07/02 05:39:11;;;;;;;;;;;;;;;;;;5067620;28;20375;-78
2023/07/02 05:41:37;;;;;;;27.77;7.15;;;;;;;;;;5071332;28;19927;-78
2023/07/02 05:44:03;;;;;;;25.45;7.75;;;;;;;;;;5070342;28;20036;-78
2023/07/02 05:46:29;;;;;;;;;;;;;;;;;;5071734;28;20059;-78
2023/07/02 05:48:56;;;;;;;24.52;7.35;;;;;;;;;;5053058;28;19928;-78
2023/07/02 05:51:23;;;;;;;26.95;7.60;;;;;;;;;;5070049;28;20090;-78
2023/07/02 05:53:49;;;;;;;26.58;7.85;;;;;;;;;;5068570;28;20088;-78
2023/07/02 05:56:15;;;;;;;;;;;;;;;;;;5071484;28;20045;-78
2023/07/02 05:58:41;;;;;;;22.48;7.28;;;;;;;;;;5057786;28;19999;-78
2023/07/02 06:01:07;;;;;;;;;;;;;;;;;;5071369;28;20051;-78
2023/07/02 06:03:34;;;;;;;24.80;7.45;;;;;;;;;;5063580;28;19925;-78
2023/07/02 06:06:00;;;;;;;24.58;7.20;;;;;;;;;;5070138;28;20045;-78
2023/07/02 06:08:26;;;;;;;;;;;;;;;;;;5070592;28;20445;-78
2023/07/02 06:10:52;;;;;;;26.55;7.80;;;;;;;;;;5053517;28;20007;-78
2023/07/02 06:13:18;;;;;;;25.73;7.78;;;;;;;;;;5050810;28;20493;-79
2023/07/02 06:15:44;;;;;;;;;;;;;;;;;;5051211;28;20175;-78
2023/07/02 06:18:11;;;;;;;24.17;7.55;;;;;;;;;;5066844;28;19920;-78
2023/07/02 06:20:37;;;;;;;;;;;;;;;;;;5037951;28;20477;-78
2023/07/02 06:23:03;;;;;;;24.30;7.93;;;;;;;;;;5069397;28;19931;-79
2023/07/02 06:25:29;;;;;;;;;;;;;;;;;;5053745;28;20568;-77
2023/07/02 06:27:58;;;;;;;27.17;7.40;;;;;;;;;;5069634;28;20015;-77
2023/07/02 06:30:24;;;;;;;22.27;7.25;;;;;;;;;;5069854;28;20106;-77
2023/07/02 06:32:50;;;;;;;24.55;6.85;;;;;;;;;;5068054;28;20052;-78
2023/07/02 06:35:16;;;;;;;;;;;;;;;;;;5032648;28;20056;-77
2023/07/02 06:37:42;;;;;;;22.90;7.20;;;;;;;;;;5036896;28;19925;-77
2023/07/02 06:40:08;;;;;;;22.25;7.28;;;;;;;;;;5032496;28;20053;-77
2023/07/02 06:42:35;;;;;;;29.35;7.38;;;;;;;;;;5049356;28;20045;-78
2023/07/02 06:45:02;;;;;;;26.70;7.43;;;;;;;;;;5033202;28;20578;-82
2023/07/02 06:47:28;;;;;;;23.80;6.80;;;;;;;;;;5069213;28;20048;-81
2023/07/02 06:49:54;;;;;;;;;;;;;;;;;;5052540;28;20105;-81
2023/07/02 06:52:20;;;;;;;23.45;6.25;;;;;;;;;;5070022;28;20291;-81
2023/07/02 06:54:46;;;;;;;;;;;;;;;;;;5070095;28;20044;-82
2023/07/02 06:57:13;;;;;;;25.20;6.32;;;;;;;;;;5064155;28;19920;-82
2023/07/02 06:59:39;;;;;;;20.33;6.35;;;;;;;;;;5066385;28;20060;-82
2023/07/02 07:02:05;;;;;;;;;;;;;;;;;;5053161;28;20055;-82
2023/07/02 07:04:31;;;;;;;22.63;6.30;;;;;;;;;;5052423;28;20277;-83
2023/07/02 07:06:57;;;;;;;;;;;;;;;;;;5058338;28;20056;-82
2023/07/02 07:09:23;;;;;;;24.35;7.03;;;;;;;;;;5049227;28;19925;-82
2023/07/02 07:11:49;;;;;;;;;;;;;;;;;;5033274;28;20115;-82
2023/07/02 07:14:15;;;;;;;20.52;5.97;;;;;;;;;;5048780;28;19920;-81
2023/07/02 07:16:41;;;;;;;19.35;5.65;;;;;;;;;;5063339;28;20129;-82
2023/07/02 07:19:07;;;;;;;;;;;;;;;;;;5050680;28;20455;-82
2023/07/02 07:21:37;;;;;;;18.08;5.72;;;;;;;;;;5052432;28;19924;-82
2023/07/02 07:24:03;;;;;;;20.02;5.47;;;;;;;;;;5068574;28;20084;-82
2023/07/02 07:26:29;;;;;;;25.13;5.88;;;;;;;;;;5069239;28;20045;-82
2023/07/02 07:28:55;;;;;;;;;;;;;;;;;;5069941;28;20037;-82
2023/07/02 07:31:22;;;;;;;21.88;5.72;;;;;;;;;;5069508;28;19943;-82
2023/07/02 07:33:48;;;;;;;21.58;6.07;;;;;;;;;;5068797;28;20037;-78
2023/07/02 07:36:14;;;;;;;;;;;;;;;;;;5068769;28;20080;-88
2023/07/02 07:38:40;;;;;;;22.88;5.18;;;;;;;;;;5061426;28;19971;-83
2023/07/02 07:41:06;;;;;;;;;;;;;;;;;;5069603;28;20048;-80
2023/07/02 07:43:32;;;;;;;18.55;5.22;;;;;;;;;;5057722;28;19921;-83
2023/07/02 07:45:59;;;;;;;;;;;;;;;;;;5066546;28;20091;-78
2023/07/02 07:48:25;;;;;;;21.05;5.80;;;;;;;;;;5054362;28;19924;-76
2023/07/02 07:50:51;;;;;;;;;;;;;;;;;;5053429;28;20044;-76
2023/07/02 07:53:17;;;;;;;24.95;5.53;;;;;;;;;;5051873;28;19924;-84
2023/07/02 07:55:43;;;;;;;;;;;;;;;;;;5053490;28;20144;-85
2023/07/02 07:58:09;;;;;;;17.17;5.47;;;;;;;;;;5052235;28;19928;-88
2023/07/02 08:00:35;;;;;;;;;;;;;;;;;;5052407;28;20581;-86
2023/07/02 08:03:03;;;;;;;18.63;6.15;;;;;;;;;;5055306;28;20288;-84
2023/07/02 08:05:29;;;;;;;21.65;5.70;;;;;;;;;;5049792;28;20045;-88
2023/07/02 08:07:56;;;;;;;17.98;5.95;;;;;;;;;;5052467;28;20053;-85
2023/07/02 08:10:23;;;;;;;15.18;5.38;;;;;;;;;;5048418;28;20481;-86
2023/07/02 08:12:52;;;;;;;14.65;4.65;;;;;;;;;;5048856;28;20064;-84
2023/07/02 08:15:18;;;;;;;13.55;4.18;;;;;;;;;;5032556;28;20052;-82
2023/07/02 08:17:44;;;;;;;;;;;;;;;;;;5033619;28;20052;-81
2023/07/02 08:20:10;;;;;;;14.05;4.07;;;;;;;;;;5052891;28;20019;-84
2023/07/02 08:22:37;;;;;;;13.13;3.53;;;;;;;;;;5046873;28;20428;-84
2023/07/02 08:25:04;;;;;;;12.82;3.80;;;;;;;;;;5056243;28;20079;-87
2023/07/02 08:27:30;;;;;;;10.05;3.85;;;;;;;;;;5057149;28;20070;-84
2023/07/02 08:29:56;;;;;;;13.88;3.88;;;;;;;;;;5039083;28;20053;-82
2023/07/02 08:32:22;;;;;;;;;;;;;;;;;;5068560;28;20055;-82
2023/07/02 08:34:50;;;;;;;13.20;4.22;;;;;;;;;;5051610;28;19924;-82
2023/07/02 08:37:16;;;;;;;12.75;3.97;;;;;;;;;;5035326;28;20513;-82
2023/07/02 08:39:42;;;;;;;10.95;3.60;;;;;;;;;;5068137;28;20041;-82
2023/07/02 08:42:08;;;;;;;;;;;;;;;;;;5055780;28;20152;-82
2023/07/02 08:44:38;;;;;;;12.77;3.20;;;;;;;;;;5055431;28;20690;-82
2023/07/02 08:47:06;;;;;;;13.52;3.40;;;;;;;;;;5054991;28;20056;-82
2023/07/02 08:49:32;;;;;;;8.93;3.22;;;;;;;;;;5070873;28;20492;-82
2023/07/02 08:51:58;;;;;;;9.90;3.28;;;;;;;;;;5072332;28;20044;-82
2023/07/02 08:54:24;;;;;;;9.93;3.00;;;;;;;;;;5071245;28;20052;-82
2023/07/02 08:56:50;;;;;;;;;;;;;;;;;;5039409;28;20572;-82
2023/07/02 08:59:16;;;;;;;12.43;3.40;;;;;;;;;;5071145;28;19932;-82
2023/07/02 09:01:42;;;;;;;;;;;;;;;;;;5056046;28;20510;-82
2023/07/02 09:04:15;;;;;;;10.70;3.67;;;;;;;;;;5049995;28;20008;-81
2023/07/02 09:06:41;;;;;;;14.63;2.83;;;;;;;;;;5052170;28;20489;-82
2023/07/02 09:09:07;;;;;;;;;;;;;;;;;;5044536;28;20049;-82
2023/07/02 09:11:33;;;;;;;12.77;3.22;;;;;;;;;;5070529;28;20014;-81
2023/07/02 09:14:00;;;;;;;12.98;3.30;;;;;;;;;;5071151;28;20103;-82
2023/07/02 09:16:28;;;;;;;12.10;3.38;;;;;;;;;;5051412;28;20041;-82
2023/07/02 09:18:57;;;;;;;11.25;3.40;;;;;;;;;;5034304;28;20060;-82
2023/07/02 09:21:26;;;;;;;7.60;2.53;;;;;;;;;;5034737;28;20102;-82
2023/07/02 09:23:52;;;;;;;11.07;3.22;;;;;;;;;;5051281;28;20131;-82
2023/07/02 09:26:22;;;;;;;6.28;2.35;;;;;;;;;;5051296;28;20045;-83
2023/07/02 09:28:48;;;;;;;8.55;3.40;;;;;;;;;;5034786;28;20098;-82
2023/07/02 09:31:14;;;;;;;;;;;;;;;;;;5035072;28;20498;-82
2023/07/02 09:33:40;;;;;;;8.50;2.72;;;;;;;;;;5052606;28;19928;-82
2023/07/02 09:36:06;;;;;;;;;;;;;;;;;;5070783;28;20264;-81
2023/07/02 09:38:32;;;;;;;10.80;3.08;;;;;;;;;;5053918;28;20605;-82
2023/07/02 09:40:59;;;;;;;10.57;3.20;;;;;;;;;;5053336;28;20056;-87
2023/07/02 09:43:25;;;;;;;12.25;3.38;;;;;;;;;;5051076;28;20036;-85
2023/07/02 09:45:51;;;;;;;12.30;3.28;;;;;;;;;;5047446;28;20070;-82
2023/07/02 09:48:18;;;;;;;11.40;3.30;;;;;;;;;;5059879;28;20126;-86
2023/07/02 09:50:44;;;;;;;13.20;3.80;;;;;;;;;;5090411;28;20044;-86
2023/07/02 09:53:11;;;;;;;13.25;3.92;;;;;;;;;;5074073;28;20070;-85
2023/07/02 09:55:39;;;;;;;13.73;3.95;;;;;;;;;;5045650;28;20048;-83
2023/07/02 09:58:05;;;;;;;12.02;4.00;;;;;;;;;;5065089;28;20071;-83
2023/07/02 10:00:31;;;;;;;17.55;4.25;;;;;;;;;;5061788;28;20064;-84
2023/07/02 10:02:57;;;;;;;;;;;;;;;;;;5071448;28;20044;-83
2023/07/02 10:05:26;;;;;;;24.80;4.38;;;;;;;;;;5089922;28;19924;-85
2023/07/02 10:07:53;;;;;;;16.30;4.47;;;;;;;;;;5090573;28;20048;-86
2023/07/02 10:10:26;;;;;;;10.60;4.03;;;;;;;;;;5073157;28;20075;-85
2023/07/02 10:12:52;;;;;;;14.85;3.70;;;;;;;;;;5061114;28;20170;-83
2023/07/02 10:15:18;;;;;;;;;;;;;;;;;;5026869;28;20472;-82
2023/07/02 10:17:54;;;;;;;11.43;3.47;;;;;;;;;;5083961;28;19926;-81
2023/07/02 10:20:32;;;;;;;11.45;3.97;;;;;;;;;;5083778;28;20056;-82
2023/07/02 10:22:58;;;;;;;13.07;3.75;;;;;;;;;;5052746;28;20072;-82
2023/07/02 10:25:24;;;;;;;;;;;;;;;;;;5058623;28;20415;-82
2023/07/02 10:27:51;;;;;;;12.55;3.47;;;;;;;;;;5088879;28;19924;-82
2023/07/02 10:30:16;;;;;;;;;;;;;;;;;;5073276;28;20050;-82
2023/07/02 10:32:43;;;;;;;14.45;4.05;;;;;;;;;;5071080;28;19924;-82
2023/07/02 10:35:18;;;;;;;11.23;4.05;;;;;;;;;;5070059;28;20044;-82
2023/07/02 10:37:45;;;;;;;15.10;4.30;;;;;;;;;;5067876;28;20082;-83
2023/07/02 10:40:11;;;;;;;11.05;3.22;;;;;;;;;;5081337;28;20064;-84
2023/07/02 10:42:47;;;;;;;14.43;4.75;;;;;;;;;;5065203;28;20115;-85
2023/07/02 10:45:13;;;;;;;13.45;3.92;;;;;;;;;;5090047;28;20054;-85
2023/07/02 10:47:40;;;;;;;13.77;4.22;;;;;;;;;;5087366;28;20781;-83
2023/07/02 10:50:20;;;;;;;14.00;4.18;;;;;;;;;;5071602;28;20075;-85
2023/07/02 10:52:46;;;;;;;16.75;4.22;;;;;;;;;;5067030;28;20516;-78
2023/07/02 10:55:22;;;;;;;13.68;4.28;;;;;;;;;;5090792;28;20074;-83
2023/07/02 10:57:52;;;;;;;14.25;4.45;;;;;;;;;;5055594;28;20382;-77
2023/07/02 11:00:19;;;;;;;12.27;4.22;;;;;;;;;;5069874;28;20045;-86
2023/07/02 11:02:45;;;;;;;10.93;4.05;;;;;;;;;;5043976;28;20040;-84
2023/07/02 11:05:14;;;;;;;;;;;;;;;;;;5088486;28;20087;-82
2023/07/02 11:07:43;;;;;;;10.93;3.63;;;;;;;;;;5077938;28;20060;-86
2023/07/02 11:10:10;;;;;;;16.60;4.40;;;;;;;;;;5089564;28;20086;-86
2023/07/02 11:12:36;;;;;;;17.13;4.32;;;;;;;;;;5071424;28;20055;-86
2023/07/02 11:15:09;;;;;;;14.90;4.05;;;;;;;;;;5089860;28;20119;-84
2023/07/02 11:17:35;;;;;;;13.45;4.07;;;;;;;;;;5059486;28;20039;-84
2023/07/02 11:20:05;;;;;;;14.85;4.25;;;;;;;;;;5071499;28;20138;-86
2023/07/02 11:22:31;;;;;;;18.58;4.43;;;;;;;;;;5071265;28;20080;-85
2023/07/02 11:24:57;;;;;;;12.57;3.72;;;;;;;;;;5084401;28;20052;-86
2023/07/02 11:27:23;;;;;;;;;;;;;;;;;;5072187;28;20096;-82
2023/07/02 11:29:59;;;;;;;16.38;4.97;;;;;;;;;;5086888;28;19928;-86
2023/07/02 11:32:25;;;;;;;11.35;3.80;;;;;;;;;;5064320;28;20067;-82
2023/07/02 11:34:51;;;;;;;;;;;;;;;;;;5070393;28;20039;-87
2023/07/02 11:37:17;;;;;;;11.85;3.78;;;;;;;;;;5089242;28;20372;-89
2023/07/02 11:39:43;;;;;;;;;;;;;;;;;;5071591;28;20043;-83
2023/07/02 11:42:09;;;;;;;12.27;3.60;;;;;;;;;;5082119;28;19931;-87
2023/07/02 11:44:35;;;;;;;;;;;;;;;;;;5055170;28;20134;-84
2023/07/02 11:47:01;;;;;;;12.80;3.22;;;;;;;;;;5082537;28;20055;-85
2023/07/02 11:49:27;;;;;;;11.40;3.30;;;;;;;;;;5076284;28;20043;-81
2023/07/02 11:51:53;;;;;;;;;;;;;;;;;;5040433;28;20059;-83
2023/07/02 11:54:19;;;;;;;10.23;3.33;;;;;;;;;;5065686;28;19924;-83
2023/07/02 11:56:45;;;;;;;12.43;3.10;;;;;;;;;;5073635;28;20122;-85
2023/07/02 11:59:11;;;;;;;9.18;2.95;;;;;;;;;;5090548;28;20044;-84
2023/07/02 12:01:37;;;;;;;;;;;;;;;;;;5049524;28;20430;-84
2023/07/02 12:04:05;;;;;;;11.95;2.90;;;;;;;;;;5073406;28;19920;-88
2023/07/02 12:06:31;;;;;;;12.30;3.45;;;;;;;;;;5085974;28;20407;-83
2023/07/02 12:08:57;;;;;;;10.63;3.03;;;;;;;;;;5038055;28;20052;-85
2023/07/02 12:11:23;;;;;;;;;;;;;;;;;;5066685;28;20135;-83
2023/07/02 12:13:52;;;;;;;13.00;3.28;;;;;;;;;;5074524;28;19924;-83
2023/07/02 12:16:18;;;;;;;;;;;;;;;;;;5067382;28;20496;-82
2023/07/02 12:18:44;;;;;;;11.98;3.33;;;;;;;;;;5072054;28;19926;-81
2023/07/02 12:21:10;;;;;;;;;;;;;;;;;;5092100;28;20048;-83
2023/07/02 12:23:36;;;;;;;11.00;2.97;;;;;;;;;;5090713;28;20429;-80
2023/07/02 12:26:02;;;;;;;;;;;;;;;;;;5075776;28;20113;-81
2023/07/02 12:28:28;;;;;;;9.10;2.70;;;;;;;;;;5091019;28;19978;-82
2023/07/02 12:30:54;;;;;;;;;;;;;;;;;;5074305;28;20055;-81
2023/07/02 12:33:20;;;;;;;7.57;2.88;;;;;;;;;;5077839;28;19920;-83
2023/07/02 12:35:47;;;;;;;9.38;3.08;;;;;;;;;;5037623;28;20087;-83
2023/07/02 12:38:13;;;;;;;7.47;2.80;;;;;;;;;;5067144;28;20052;-84
2023/07/02 12:40:40;;;;;;;11.25;3.03;;;;;;;;;;5083870;28;20052;-82
2023/07/02 12:43:06;;;;;;;7.20;2.50;;;;;;;;;;5037664;28;20090;-82
2023/07/02 12:45:32;;;;;;;;;;;;;;;;;;5069009;28;20040;-83
2023/07/02 12:47:58;;;;;;;6.25;2.30;;;;;;;;;;5090413;28;20032;-83
2023/07/02 12:50:24;;;;;;;8.95;3.03;;;;;;;;;;5074229;28;20048;-83
2023/07/02 12:52:50;;;;;;;11.88;2.60;;;;;;;;;;5073951;28;20048;-83
2023/07/02 12:55:17;;;;;;;6.53;2.58;;;;;;;;;;5075154;28;20056;-81
2023/07/02 12:57:43;;;;;;;13.32;2.63;;;;;;;;;;5056483;28;20374;-83
2023/07/02 13:00:09;;;;;;;8.63;2.83;;;;;;;;;;5091806;28;20051;-85
2023/07/02 13:02:35;;;;;;;8.18;2.70;;;;;;;;;;5072218;28;20061;-83
2023/07/02 13:05:01;;;;;;;;;;;;;;;;;;5063017;28;20052;-83
2023/07/02 13:07:29;;;;;;;10.98;3.08;;;;;;;;;;5069003;28;19920;-83
2023/07/02 13:09:56;;;;;;;9.20;2.80;;;;;;;;;;5059072;28;20239;-83
2023/07/02 13:12:21;;;;;;;;;;;;;;;;;;5046100;28;20057;-84
2023/07/02 13:14:48;;;;;;;9.75;2.65;;;;;;;;;;5056213;28;19924;-84
2023/07/02 13:17:14;;;;;;;9.02;3.08;;;;;;;;;;5051266;28;20051;-82
2023/07/02 13:19:40;;;;;;;;;;;;;;;;;;5070466;28;20099;-83
2023/07/02 13:22:06;;;;;;;6.95;2.85;;;;;;;;;;5064867;28;19989;-86
2023/07/02 13:24:35;;;;;;;14.10;3.47;;;;;;;;;;5076545;28;20427;-83
2023/07/02 13:27:03;;;;;;;12.52;3.22;;;;;;;;;;5054262;28;20048;-86
2023/07/02 13:29:29;;;;;;;9.15;3.10;;;;;;;;;;5054154;28;20045;-87
2023/07/02 13:31:55;;;;;;;9.10;3.20;;;;;;;;;;5054235;28;20051;-86
2023/07/02 13:34:21;;;;;;;8.75;3.28;;;;;;;;;;5066971;28;20152;-83
2023/07/02 13:36:47;;;;;;;8.50;3.30;;;;;;;;;;5040662;28;20045;-83
2023/07/02 13:39:13;;;;;;;9.95;3.65;;;;;;;;;;5044979;28;20084;-81
2023/07/02 13:41:39;;;;;;;9.57;3.10;;;;;;;;;;5054049;28;20048;-82
2023/07/02 13:44:05;;;;;;;9.80;3.58;;;;;;;;;;5063874;28;20048;-84
2023/07/02 13:46:32;;;;;;;8.73;3.38;;;;;;;;;;5090731;28;20048;-84
2023/07/02 13:48:58;;;;;;;10.65;3.63;;;;;;;;;;5055791;28;20048;-84
2023/07/02 13:51:24;;;;;;;10.48;3.33;;;;;;;;;;5069808;28;20549;-84
2023/07/02 13:53:50;;;;;;;8.90;3.47;;;;;;;;;;5089551;28;20135;-83
2023/07/02 13:56:16;;;;;;;8.38;3.58;;;;;;;;;;5073020;28;20040;-83
2023/07/02 13:58:54;;;;;;;10.82;3.30;;;;;;;;;;5089305;28;20042;-82
2023/07/02 14:01:20;;;;;;;10.38;3.67;;;;;;;;;;5060481;28;20079;-83
2023/07/02 14:03:46;;;;;;;10.32;3.05;;;;;;;;;;5064627;28;20032;-83
2023/07/02 14:06:13;;;;;;;10.30;4.05;;;;;;;;;;5050439;28;20533;-83
2023/07/02 14:08:39;;;;;;;13.15;4.00;;;;;;;;;;5052002;28;20072;-83
2023/07/02 14:11:05;;;;;;;;;;;;;;;;;;5053150;28;20040;-83
2023/07/02 14:13:31;;;;;;;9.23;3.72;;;;;;;;;;5051858;28;20426;-82
2023/07/02 14:15:57;;;;;;;10.82;3.50;;;;;;;;;;5051999;28;20396;-82
2023/07/02 14:18:23;;;;;;;12.77;3.70;;;;;;;;;;5052299;28;20051;-82
2023/07/02 14:20:49;;;;;;;12.30;3.85;;;;;;;;;;5067404;28;20529;-83
2023/07/02 14:23:15;;;;;;;12.98;3.92;;;;;;;;;;5052269;28;20091;-81
2023/07/02 14:25:41;;;;;;;11.65;4.25;;;;;;;;;;5068751;28;20412;-81
2023/07/02 14:28:08;;;;;;;9.85;3.85;;;;;;;;;;5052554;28;20140;-82
2023/07/02 14:30:34;;;;;;;10.20;3.90;;;;;;;;;;5069620;28;20083;-84
2023/07/02 14:33:00;;;;;;;;;;;;;;;;;;5049604;28;20048;-83
2023/07/02 14:35:27;;;;;;;12.50;3.53;;;;;;;;;;5069175;28;19931;-82
2023/07/02 14:37:54;;;;;;;11.65;3.80;;;;;;;;;;5068909;28;20063;-82
2023/07/02 14:40:20;;;;;;;11.25;3.78;;;;;;;;;;5049164;28;20117;-82
2023/07/02 14:42:47;;;;;;;10.18;3.55;;;;;;;;;;5050425;28;20117;-82
2023/07/02 14:45:12;;;;;;;;;;;;;;;;;;5053071;28;20091;-82
2023/07/02 14:47:39;;;;;;;10.70;3.67;;;;;;;;;;5068391;28;20314;-82
2023/07/02 14:50:05;;;;;;;11.95;3.72;;;;;;;;;;5052145;28;20037;-81
2023/07/02 14:52:31;;;;;;;11.95;4.13;;;;;;;;;;5052269;28;20040;-80
2023/07/02 14:55:00;;;;;;;10.30;4.07;;;;;;;;;;5050958;28;20044;-80
2023/07/02 14:57:27;;;;;;;10.18;3.47;;;;;;;;;;5036064;28;20048;-80